Terminal Aerodrome Forecast
Issued by NWS Binghamton, NY

Home | Current Version | Previous Version | Text Only | Print | Product List | Glossary On
Versions: 1 2 3 4 5 6 7 8 9 10 11 12 13 14 15 16 17 18
306
FTUS41 KBGM 162328
TAFBGM
TAF
KBGM 162328Z 1700/1724 21004KT P6SM OVC100
     FM170400 17004KT P6SM OVC040
     FM171200 13005KT 4SM -FZRA BR OVC025
     FM171400 14008KT 3SM -RA BR OVC012
     FM171600 15010KT 3SM -RA BR OVC005=

USA.gov is the U.S. government's official web portal to all federal, state and local government web resources and services.